sensor_id;sensor_type;location;lat;lon;timestamp;temperature;humidity
17423;DHT22;8829;47.932;7.810;2023-04-03T00:01:18;4.60;99.90
17423;DHT22;8829;47.932;7.810;2023-04-03T00:03:46;4.50;99.90
17423;DHT22;8829;47.932;7.810;2023-04-03T00:06:13;4.50;99.90
17423;DHT22;8829;47.932;7.810;2023-04-03T00:08:40;4.60;99.90
17423;DHT22;8829;47.932;7.810;2023-04-03T00:11:08;4.50;99.90
17423;DHT22;8829;47.932;7.810;2023-04-03T00:13:35;4.50;99.90
17423;DHT22;8829;47.932;7.810;2023-04-03T00:16:02;4.50;99.90
17423;DHT22;8829;47.932;7.810;2023-04-03T00:18:29;4.50;99.90
17423;DHT22;8829;47.932;7.810;2023-04-03T00:20:58;4.40;99.90
17423;DHT22;8829;47.932;7.810;2023-04-03T00:23:25;4.50;99.90
17423;DHT22;8829;47.932;7.810;2023-04-03T00:25:52;4.50;99.90
17423;DHT22;8829;47.932;7.810;2023-04-03T00:28:19;4.50;99.90
17423;DHT22;8829;47.932;7.810;2023-04-03T00:30:46;4.40;99.90
17423;DHT22;8829;47.932;7.810;2023-04-03T00:33:13;4.30;99.90
17423;DHT22;8829;47.932;7.810;2023-04-03T00:35:40;4.40;99.90
17423;DHT22;8829;47.932;7.810;2023-04-03T00:38:09;4.40;99.90
17423;DHT22;8829;47.932;7.810;2023-04-03T00:40:38;4.40;99.90
17423;DHT22;8829;47.932;7.810;2023-04-03T00:43:11;4.40;99.90
17423;DHT22;8829;47.932;7.810;2023-04-03T00:45:40;4.40;99.90
17423;DHT22;8829;47.932;7.810;2023-04-03T00:48:08;4.30;99.90
17423;DHT22;8829;47.932;7.810;2023-04-03T00:50:38;4.30;99.90
17423;DHT22;8829;47.932;7.810;2023-04-03T00:53:10;4.30;99.90
17423;DHT22;8829;47.932;7.810;2023-04-03T00:55:38;4.30;99.90
17423;DHT22;8829;47.932;7.810;2023-04-03T00:58:05;4.30;99.90
17423;DHT22;8829;47.932;7.810;2023-04-03T01:00:33;4.30;99.90
17423;DHT22;8829;47.932;7.810;2023-04-03T01:03:00;4.30;99.90
17423;DHT22;8829;47.932;7.810;2023-04-03T01:05:27;4.20;99.90
17423;DHT22;8829;47.932;7.810;2023-04-03T01:07:54;4.20;99.90
17423;DHT22;8829;47.932;7.810;2023-04-03T01:10:22;4.20;99.90
17423;DHT22;8829;47.932;7.810;2023-04-03T01:12:51;4.20;99.90
17423;DHT22;8829;47.932;7.810;2023-04-03T01:15:21;4.20;99.90
17423;DHT22;8829;47.932;7.810;2023-04-03T01:17:49;4.10;99.90
17423;DHT22;8829;47.932;7.810;2023-04-03T01:23:32;4.10;99.90
17423;DHT22;8829;47.932;7.810;2023-04-03T01:26:04;4.00;99.90
17423;DHT22;8829;47.932;7.810;2023-04-03T01:28:32;4.00;99.90
17423;DHT22;8829;47.932;7.810;2023-04-03T01:31:05;3.90;99.90
17423;DHT22;8829;47.932;7.810;2023-04-03T01:33:36;3.90;99.90
17423;DHT22;8829;47.932;7.810;2023-04-03T01:36:04;3.90;99.90
17423;DHT22;8829;47.932;7.810;2023-04-03T01:38:31;3.90;99.90
17423;DHT22;8829;47.932;7.810;2023-04-03T01:40:58;3.90;99.90
17423;DHT22;8829;47.932;7.810;2023-04-03T01:43:25;3.90;99.90
17423;DHT22;8829;47.932;7.810;2023-04-03T01:45:52;3.90;99.90
17423;DHT22;8829;47.932;7.810;2023-04-03T01:48:20;3.90;99.90
17423;DHT22;8829;47.932;7.810;2023-04-03T01:50:48;3.90;99.90
17423;DHT22;8829;47.932;7.810;2023-04-03T01:53:15;3.90;99.90
17423;DHT22;8829;47.932;7.810;2023-04-03T01:55:42;3.90;99.90
17423;DHT22;8829;47.932;7.810;2023-04-03T01:58:08;3.90;99.90
17423;DHT22;8829;47.932;7.810;2023-04-03T02:00:35;3.90;99.90
17423;DHT22;8829;47.932;7.810;2023-04-03T02:03:02;4.00;99.90
17423;DHT22;8829;47.932;7.810;2023-04-03T02:05:28;4.00;99.90
17423;DHT22;8829;47.932;7.810;2023-04-03T02:07:56;4.00;99.90
17423;DHT22;8829;47.932;7.810;2023-04-03T02:10:23;4.10;99.90
17423;DHT22;8829;47.932;7.810;2023-04-03T02:12:50;4.10;99.90
17423;DHT22;8829;47.932;7.810;2023-04-03T02:15:17;4.10;99.90
17423;DHT22;8829;47.932;7.810;2023-04-03T02:17:44;4.20;99.90
17423;DHT22;8829;47.932;7.810;2023-04-03T02:20:10;4.10;99.90
17423;DHT22;8829;47.932;7.810;2023-04-03T02:22:37;4.10;99.90
17423;DHT22;8829;47.932;7.810;2023-04-03T02:25:05;4.00;99.90
17423;DHT22;8829;47.932;7.810;2023-04-03T02:27:32;4.10;99.90
17423;DHT22;8829;47.932;7.810;2023-04-03T02:29:59;4.00;99.90
17423;DHT22;8829;47.932;7.810;2023-04-03T02:32:25;4.00;99.90
17423;DHT22;8829;47.932;7.810;2023-04-03T02:34:52;4.10;99.90
17423;DHT22;8829;47.932;7.810;2023-04-03T02:37:19;4.10;99.90
17423;DHT22;8829;47.932;7.810;2023-04-03T02:39:46;4.10;99.90
17423;DHT22;8829;47.932;7.810;2023-04-03T02:42:14;4.00;99.90
17423;DHT22;8829;47.932;7.810;2023-04-03T02:44:41;4.00;99.90
17423;DHT22;8829;47.932;7.810;2023-04-03T02:47:07;4.00;99.90
17423;DHT22;8829;47.932;7.810;2023-04-03T02:49:34;3.90;99.90
17423;DHT22;8829;47.932;7.810;2023-04-03T02:52:00;3.90;99.90
17423;DHT22;8829;47.932;7.810;2023-04-03T02:54:27;3.80;99.90
17423;DHT22;8829;47.932;7.810;2023-04-03T02:56:56;3.80;99.90
17423;DHT22;8829;47.932;7.810;2023-04-03T02:59:24;3.80;99.90
17423;DHT22;8829;47.932;7.810;2023-04-03T03:01:51;3.70;99.90
17423;DHT22;8829;47.932;7.810;2023-04-03T03:04:18;3.70;99.90
17423;DHT22;8829;47.932;7.810;2023-04-03T03:06:44;3.70;99.90
17423;DHT22;8829;47.932;7.810;2023-04-03T03:09:11;3.70;99.90
17423;DHT22;8829;47.932;7.810;2023-04-03T03:11:39;3.70;99.90
17423;DHT22;8829;47.932;7.810;2023-04-03T03:14:05;3.70;99.90
17423;DHT22;8829;47.932;7.810;2023-04-03T03:16:33;3.70;99.90
17423;DHT22;8829;47.932;7.810;2023-04-03T03:19:00;3.60;99.90
17423;DHT22;8829;47.932;7.810;2023-04-03T03:21:27;3.60;99.90
17423;DHT22;8829;47.932;7.810;2023-04-03T03:23:53;3.60;99.90
17423;DHT22;8829;47.932;7.810;2023-04-03T03:26:20;3.60;99.90
17423;DHT22;8829;47.932;7.810;2023-04-03T03:28:47;3.60;99.90
17423;DHT22;8829;47.932;7.810;2023-04-03T03:31:13;3.70;99.90
17423;DHT22;8829;47.932;7.810;2023-04-03T03:33:42;3.70;99.90
17423;DHT22;8829;47.932;7.810;2023-04-03T03:36:08;3.80;99.90
17423;DHT22;8829;47.932;7.810;2023-04-03T03:38:35;3.80;99.90
17423;DHT22;8829;47.932;7.810;2023-04-03T03:41:02;3.80;99.90
17423;DHT22;8829;47.932;7.810;2023-04-03T03:43:29;3.90;99.90
17423;DHT22;8829;47.932;7.810;2023-04-03T03:45:55;4.00;99.90
17423;DHT22;8829;47.932;7.810;2023-04-03T03:48:22;3.80;99.90
17423;DHT22;8829;47.932;7.810;2023-04-03T03:50:50;3.70;99.90
17423;DHT22;8829;47.932;7.810;2023-04-03T03:53:17;3.60;99.90
17423;DHT22;8829;47.932;7.810;2023-04-03T03:55:44;3.70;99.90
17423;DHT22;8829;47.932;7.810;2023-04-03T03:58:11;3.60;99.90
17423;DHT22;8829;47.932;7.810;2023-04-03T04:00:37;3.60;99.90
17423;DHT22;8829;47.932;7.810;2023-04-03T04:03:04;3.50;99.90
17423;DHT22;8829;47.932;7.810;2023-04-03T04:05:31;3.50;99.90
17423;DHT22;8829;47.932;7.810;2023-04-03T04:07:59;3.60;99.90
17423;DHT22;8829;47.932;7.810;2023-04-03T04:10:26;3.60;99.90
17423;DHT22;8829;47.932;7.810;2023-04-03T04:12:52;3.60;99.90
17423;DHT22;8829;47.932;7.810;2023-04-03T04:15:19;3.80;99.90
17423;DHT22;8829;47.932;7.810;2023-04-03T04:17:47;3.90;99.90
17423;DHT22;8829;47.932;7.810;2023-04-03T04:20:14;4.00;99.90
17423;DHT22;8829;47.932;7.810;2023-04-03T04:22:40;4.00;99.90
17423;DHT22;8829;47.932;7.810;2023-04-03T04:25:09;4.20;99.90
17423;DHT22;8829;47.932;7.810;2023-04-03T04:27:35;4.10;99.90
17423;DHT22;8829;47.932;7.810;2023-04-03T04:30:03;4.30;99.90
17423;DHT22;8829;47.932;7.810;2023-04-03T04:32:30;4.20;99.90
17423;DHT22;8829;47.932;7.810;2023-04-03T04:34:56;4.30;99.90
17423;DHT22;8829;47.932;7.810;2023-04-03T04:37:23;4.20;99.90
17423;DHT22;8829;47.932;7.810;2023-04-03T04:39:50;4.00;99.90
17423;DHT22;8829;47.932;7.810;2023-04-03T04:42:18;3.90;99.90
17423;DHT22;8829;47.932;7.810;2023-04-03T04:44:45;3.80;99.90
17423;DHT22;8829;47.932;7.810;2023-04-03T04:47:11;3.80;99.90
17423;DHT22;8829;47.932;7.810;2023-04-03T04:49:38;3.80;99.90
17423;DHT22;8829;47.932;7.810;2023-04-03T04:52:05;3.70;99.90
17423;DHT22;8829;47.932;7.810;2023-04-03T04:54:31;3.60;99.90
17423;DHT22;8829;47.932;7.810;2023-04-03T04:56:58;3.60;99.90
17423;DHT22;8829;47.932;7.810;2023-04-03T04:59:26;3.60;99.90
17423;DHT22;8829;47.932;7.810;2023-04-03T05:01:53;3.60;99.90
17423;DHT22;8829;47.932;7.810;2023-04-03T05:04:20;3.70;99.90
17423;DHT22;8829;47.932;7.810;2023-04-03T05:06:46;3.70;99.90
17423;DHT22;8829;47.932;7.810;2023-04-03T05:09:13;3.70;99.90
17423;DHT22;8829;47.932;7.810;2023-04-03T05:11:40;3.60;99.90
17423;DHT22;8829;47.932;7.810;2023-04-03T05:14:07;3.70;99.90
17423;DHT22;8829;47.932;7.810;2023-04-03T05:16:35;3.60;99.90
17423;DHT22;8829;47.932;7.810;2023-04-03T05:19:02;3.60;99.90
17423;DHT22;8829;47.932;7.810;2023-04-03T05:21:30;3.60;99.90
17423;DHT22;8829;47.932;7.810;2023-04-03T05:23:57;3.60;99.90
17423;DHT22;8829;47.932;7.810;2023-04-03T05:26:24;3.70;99.90
17423;DHT22;8829;47.932;7.810;2023-04-03T05:28:52;3.70;99.90
17423;DHT22;8829;47.932;7.810;2023-04-03T05:31:18;3.60;99.90
17423;DHT22;8829;47.932;7.810;2023-04-03T05:33:47;3.70;99.90
17423;DHT22;8829;47.932;7.810;2023-04-03T05:36:13;3.80;99.90
17423;DHT22;8829;47.932;7.810;2023-04-03T05:38:40;3.80;99.90
17423;DHT22;8829;47.932;7.810;2023-04-03T05:41:07;3.70;99.90
17423;DHT22;8829;47.932;7.810;2023-04-03T05:43:34;3.80;99.90
17423;DHT22;8829;47.932;7.810;2023-04-03T05:46:03;3.90;99.90
17423;DHT22;8829;47.932;7.810;2023-04-03T05:48:29;4.00;99.90
17423;DHT22;8829;47.932;7.810;2023-04-03T05:50:58;4.00;99.90
17423;DHT22;8829;47.932;7.810;2023-04-03T05:53:27;4.10;99.90
17423;DHT22;8829;47.932;7.810;2023-04-03T05:55:54;4.20;99.90
17423;DHT22;8829;47.932;7.810;2023-04-03T05:58:21;4.30;99.90
17423;DHT22;8829;47.932;7.810;2023-04-03T06:00:48;4.20;99.90
17423;DHT22;8829;47.932;7.810;2023-04-03T06:03:14;4.30;99.90
17423;DHT22;8829;47.932;7.810;2023-04-03T06:05:42;4.40;99.90
17423;DHT22;8829;47.932;7.810;2023-04-03T06:08:10;4.20;99.90
17423;DHT22;8829;47.932;7.810;2023-04-03T06:10:36;4.30;99.90
17423;DHT22;8829;47.932;7.810;2023-04-03T06:13:04;4.30;99.90
17423;DHT22;8829;47.932;7.810;2023-04-03T06:15:31;4.30;99.90
17423;DHT22;8829;47.932;7.810;2023-04-03T06:17:59;4.40;99.90
17423;DHT22;8829;47.932;7.810;2023-04-03T06:20:25;4.40;99.90
17423;DHT22;8829;47.932;7.810;2023-04-03T06:22:52;4.40;99.90
17423;DHT22;8829;47.932;7.810;2023-04-03T06:25:20;4.30;99.90
17423;DHT22;8829;47.932;7.810;2023-04-03T06:27:47;4.30;99.90
17423;DHT22;8829;47.932;7.810;2023-04-03T06:30:13;4.30;99.90
17423;DHT22;8829;47.932;7.810;2023-04-03T06:32:40;4.50;99.90
17423;DHT22;8829;47.932;7.810;2023-04-03T06:35:09;4.80;99.90
17423;DHT22;8829;47.932;7.810;2023-04-03T06:37:37;5.20;99.90
17423;DHT22;8829;47.932;7.810;2023-04-03T06:40:05;5.40;99.90
17423;DHT22;8829;47.932;7.810;2023-04-03T06:42:33;5.60;99.90
17423;DHT22;8829;47.932;7.810;2023-04-03T06:45:00;5.80;99.90
17423;DHT22;8829;47.932;7.810;2023-04-03T06:47:27;6.00;99.90
17423;DHT22;8829;47.932;7.810;2023-04-03T06:49:53;6.10;99.90
17423;DHT22;8829;47.932;7.810;2023-04-03T06:52:20;6.30;99.90
17423;DHT22;8829;47.932;7.810;2023-04-03T06:54:47;6.40;99.90
17423;DHT22;8829;47.932;7.810;2023-04-03T06:57:14;6.60;99.90
17423;DHT22;8829;47.932;7.810;2023-04-03T06:59:42;6.70;99.90
17423;DHT22;8829;47.932;7.810;2023-04-03T07:02:11;6.40;99.90
17423;DHT22;8829;47.932;7.810;2023-04-03T07:04:38;5.80;99.90
17423;DHT22;8829;47.932;7.810;2023-04-03T07:07:04;5.70;99.90
17423;DHT22;8829;47.932;7.810;2023-04-03T07:09:33;5.90;99.90
17423;DHT22;8829;47.932;7.810;2023-04-03T07:12:00;6.10;99.90
17423;DHT22;8829;47.932;7.810;2023-04-03T07:14:27;6.30;99.90
17423;DHT22;8829;47.932;7.810;2023-04-03T07:16:55;6.50;99.90
17423;DHT22;8829;47.932;7.810;2023-04-03T07:19:21;7.10;99.90
17423;DHT22;8829;47.932;7.810;2023-04-03T07:21:49;7.40;99.90
17423;DHT22;8829;47.932;7.810;2023-04-03T07:24:16;7.60;99.90
17423;DHT22;8829;47.932;7.810;2023-04-03T07:26:43;7.60;99.90
17423;DHT22;8829;47.932;7.810;2023-04-03T07:29:10;7.30;99.90
17423;DHT22;8829;47.932;7.810;2023-04-03T07:31:38;6.60;99.90
17423;DHT22;8829;47.932;7.810;2023-04-03T07:34:08;6.50;99.90
17423;DHT22;8829;47.932;7.810;2023-04-03T07:36:35;6.60;99.90
17423;DHT22;8829;47.932;7.810;2023-04-03T07:39:02;6.60;99.90
17423;DHT22;8829;47.932;7.810;2023-04-03T07:41:28;6.70;99.90
17423;DHT22;8829;47.932;7.810;2023-04-03T07:43:56;6.80;99.90
17423;DHT22;8829;47.932;7.810;2023-04-03T07:46:25;6.50;99.90
17423;DHT22;8829;47.932;7.810;2023-04-03T07:48:52;6.00;99.90
17423;DHT22;8829;47.932;7.810;2023-04-03T07:51:20;6.20;99.90
17423;DHT22;8829;47.932;7.810;2023-04-03T07:53:50;6.30;99.90
17423;DHT22;8829;47.932;7.810;2023-04-03T07:56:16;6.30;99.90
17423;DHT22;8829;47.932;7.810;2023-04-03T07:58:43;6.50;99.90
17423;DHT22;8829;47.932;7.810;2023-04-03T08:01:10;7.00;99.90
17423;DHT22;8829;47.932;7.810;2023-04-03T08:03:38;7.30;99.90
17423;DHT22;8829;47.932;7.810;2023-04-03T08:06:06;8.10;99.90
17423;DHT22;8829;47.932;7.810;2023-04-03T08:08:35;8.70;99.90
17423;DHT22;8829;47.932;7.810;2023-04-03T08:11:02;9.00;99.90
17423;DHT22;8829;47.932;7.810;2023-04-03T08:13:31;9.20;99.90
17423;DHT22;8829;47.932;7.810;2023-04-03T08:15:58;8.80;99.90
17423;DHT22;8829;47.932;7.810;2023-04-03T08:18:32;8.10;99.90
17423;DHT22;8829;47.932;7.810;2023-04-03T08:20:59;7.80;99.90
17423;DHT22;8829;47.932;7.810;2023-04-03T08:23:26;7.50;99.90
17423;DHT22;8829;47.932;7.810;2023-04-03T08:25:54;7.50;99.90
17423;DHT22;8829;47.932;7.810;2023-04-03T08:28:21;7.40;99.90
17423;DHT22;8829;47.932;7.810;2023-04-03T08:30:48;7.30;99.90
17423;DHT22;8829;47.932;7.810;2023-04-03T08:33:14;7.10;99.90
17423;DHT22;8829;47.932;7.810;2023-04-03T08:35:41;7.00;99.90
17423;DHT22;8829;47.932;7.810;2023-04-03T08:38:08;7.20;99.90
17423;DHT22;8829;47.932;7.810;2023-04-03T08:40:35;7.30;99.90
17423;DHT22;8829;47.932;7.810;2023-04-03T08:43:23;7.40;99.90
17423;DHT22;8829;47.932;7.810;2023-04-03T08:45:54;7.10;99.90
17423;DHT22;8829;47.932;7.810;2023-04-03T08:48:25;7.30;99.90
17423;DHT22;8829;47.932;7.810;2023-04-03T08:50:59;7.70;99.90
17423;DHT22;8829;47.932;7.810;2023-04-03T08:53:30;7.50;99.90
17423;DHT22;8829;47.932;7.810;2023-04-03T08:55:58;7.70;99.90
17423;DHT22;8829;47.932;7.810;2023-04-03T08:58:45;8.20;99.90
17423;DHT22;8829;47.932;7.810;2023-04-03T09:01:18;8.20;99.90
17423;DHT22;8829;47.932;7.810;2023-04-03T09:03:46;8.40;99.90
17423;DHT22;8829;47.932;7.810;2023-04-03T09:06:15;9.00;99.90
17423;DHT22;8829;47.932;7.810;2023-04-03T09:08:45;9.10;99.90
17423;DHT22;8829;47.932;7.810;2023-04-03T09:11:20;9.30;99.90
17423;DHT22;8829;47.932;7.810;2023-04-03T09:13:54;9.10;99.90
17423;DHT22;8829;47.932;7.810;2023-04-03T09:16:31;9.00;99.90
17423;DHT22;8829;47.932;7.810;2023-04-03T09:19:08;8.50;99.90
17423;DHT22;8829;47.932;7.810;2023-04-03T09:21:38;7.80;99.90
17423;DHT22;8829;47.932;7.810;2023-04-03T09:24:09;7.10;99.90
17423;DHT22;8829;47.932;7.810;2023-04-03T09:26:41;7.20;99.90
17423;DHT22;8829;47.932;7.810;2023-04-03T09:29:14;6.90;99.90
17423;DHT22;8829;47.932;7.810;2023-04-03T09:31:43;6.90;99.90
17423;DHT22;8829;47.932;7.810;2023-04-03T09:34:21;6.70;99.90
17423;DHT22;8829;47.932;7.810;2023-04-03T09:36:52;6.40;99.90
17423;DHT22;8829;47.932;7.810;2023-04-03T09:39:22;6.40;99.90
17423;DHT22;8829;47.932;7.810;2023-04-03T09:42:00;6.30;99.90
17423;DHT22;8829;47.932;7.810;2023-04-03T09:44:30;6.20;99.90
17423;DHT22;8829;47.932;7.810;2023-04-03T09:46:58;6.40;99.90
17423;DHT22;8829;47.932;7.810;2023-04-03T09:49:26;6.20;99.90
17423;DHT22;8829;47.932;7.810;2023-04-03T09:51:53;6.20;99.90
17423;DHT22;8829;47.932;7.810;2023-04-03T09:54:40;6.10;99.90
17423;DHT22;8829;47.932;7.810;2023-04-03T09:57:09;6.10;99.90
17423;DHT22;8829;47.932;7.810;2023-04-03T09:59:44;6.40;99.90
17423;DHT22;8829;47.932;7.810;2023-04-03T10:02:32;6.40;99.90
17423;DHT22;8829;47.932;7.810;2023-04-03T10:05:01;6.20;99.90
17423;DHT22;8829;47.932;7.810;2023-04-03T10:07:31;6.30;99.90
17423;DHT22;8829;47.932;7.810;2023-04-03T10:10:00;6.30;99.90
17423;DHT22;8829;47.932;7.810;2023-04-03T10:12:28;6.50;99.90
17423;DHT22;8829;47.932;7.810;2023-04-03T10:14:57;6.70;99.90
17423;DHT22;8829;47.932;7.810;2023-04-03T10:17:37;6.90;99.90
17423;DHT22;8829;47.932;7.810;2023-04-03T10:20:16;7.10;99.90
17423;DHT22;8829;47.932;7.810;2023-04-03T10:22:56;7.30;99.90
17423;DHT22;8829;47.932;7.810;2023-04-03T10:25:30;7.50;99.90
17423;DHT22;8829;47.932;7.810;2023-04-03T10:28:01;7.40;99.90
17423;DHT22;8829;47.932;7.810;2023-04-03T10:30:34;7.70;99.90
17423;DHT22;8829;47.932;7.810;2023-04-03T10:33:12;7.70;99.90
17423;DHT22;8829;47.932;7.810;2023-04-03T10:35:50;7.10;99.90
17423;DHT22;8829;47.932;7.810;2023-04-03T10:38:28;6.80;99.90
17423;DHT22;8829;47.932;7.810;2023-04-03T10:41:01;6.60;99.90
17423;DHT22;8829;47.932;7.810;2023-04-03T10:43:33;6.70;99.90
17423;DHT22;8829;47.932;7.810;2023-04-03T10:46:04;6.90;99.90
17423;DHT22;8829;47.932;7.810;2023-04-03T10:48:43;7.10;99.90
17423;DHT22;8829;47.932;7.810;2023-04-03T10:51:22;7.40;99.90
17423;DHT22;8829;47.932;7.810;2023-04-03T10:53:54;7.30;99.90
17423;DHT22;8829;47.932;7.810;2023-04-03T10:56:31;7.40;99.90
17423;DHT22;8829;47.932;7.810;2023-04-03T10:59:02;7.10;99.90
17423;DHT22;8829;47.932;7.810;2023-04-03T11:01:34;7.20;99.90
17423;DHT22;8829;47.932;7.810;2023-04-03T11:04:04;7.50;99.90
17423;DHT22;8829;47.932;7.810;2023-04-03T11:06:35;7.20;99.90
17423;DHT22;8829;47.932;7.810;2023-04-03T11:09:07;6.80;99.90
17423;DHT22;8829;47.932;7.810;2023-04-03T11:11:39;7.10;99.90
17423;DHT22;8829;47.932;7.810;2023-04-03T11:14:11;7.20;99.90
17423;DHT22;8829;47.932;7.810;2023-04-03T11:16:46;7.10;99.90
17423;DHT22;8829;47.932;7.810;2023-04-03T11:19:17;7.00;99.90
17423;DHT22;8829;47.932;7.810;2023-04-03T11:21:51;7.10;99.90
17423;DHT22;8829;47.932;7.810;2023-04-03T11:24:22;7.30;99.90
17423;DHT22;8829;47.932;7.810;2023-04-03T11:26:51;7.10;99.90
17423;DHT22;8829;47.932;7.810;2023-04-03T11:29:22;6.90;99.90
17423;DHT22;8829;47.932;7.810;2023-04-03T11:32:06;6.90;99.90
17423;DHT22;8829;47.932;7.810;2023-04-03T11:34:38;7.00;99.90
17423;DHT22;8829;47.932;7.810;2023-04-03T11:37:13;6.80;99.90
17423;DHT22;8829;47.932;7.810;2023-04-03T11:39:50;6.80;99.90
17423;DHT22;8829;47.932;7.810;2023-04-03T11:42:26;6.70;99.90
17423;DHT22;8829;47.932;7.810;2023-04-03T11:45:16;6.80;99.90
17423;DHT22;8829;47.932;7.810;2023-04-03T11:47:46;7.20;99.90
17423;DHT22;8829;47.932;7.810;2023-04-03T11:50:37;7.30;99.90
17423;DHT22;8829;47.932;7.810;2023-04-03T11:53:32;7.40;99.90
17423;DHT22;8829;47.932;7.810;2023-04-03T11:56:27;7.20;99.90
17423;DHT22;8829;47.932;7.810;2023-04-03T11:59:23;7.10;99.90
17423;DHT22;8829;47.932;7.810;2023-04-03T12:01:51;7.10;99.90
17423;DHT22;8829;47.932;7.810;2023-04-03T12:04:21;7.50;99.90
17423;DHT22;8829;47.932;7.810;2023-04-03T12:06:59;7.70;99.90
17423;DHT22;8829;47.932;7.810;2023-04-03T12:09:35;7.50;99.90
17423;DHT22;8829;47.932;7.810;2023-04-03T12:12:35;7.30;99.90
17423;DHT22;8829;47.932;7.810;2023-04-03T12:15:44;7.30;99.90
17423;DHT22;8829;47.932;7.810;2023-04-03T12:18:56;7.50;99.90
17423;DHT22;8829;47.932;7.810;2023-04-03T12:22:08;7.40;99.90
17423;DHT22;8829;47.932;7.810;2023-04-03T12:24:36;7.30;99.90
17423;DHT22;8829;47.932;7.810;2023-04-03T12:27:34;7.50;99.90
17423;DHT22;8829;47.932;7.810;2023-04-03T12:30:12;7.30;99.90
17423;DHT22;8829;47.932;7.810;2023-04-03T12:32:56;7.40;99.90
17423;DHT22;8829;47.932;7.810;2023-04-03T12:35:31;7.50;99.90
17423;DHT22;8829;47.932;7.810;2023-04-03T12:38:23;7.50;99.90
17423;DHT22;8829;47.932;7.810;2023-04-03T12:40:58;7.70;99.90
17423;DHT22;8829;47.932;7.810;2023-04-03T12:43:42;7.80;99.90
17423;DHT22;8829;47.932;7.810;2023-04-03T12:46:13;7.70;99.90
17423;DHT22;8829;47.932;7.810;2023-04-03T12:48:47;7.40;99.90
17423;DHT22;8829;47.932;7.810;2023-04-03T12:51:17;7.40;99.90
17423;DHT22;8829;47.932;7.810;2023-04-03T12:53:46;7.30;99.90
17423;DHT22;8829;47.932;7.810;2023-04-03T12:56:19;6.90;99.90
17423;DHT22;8829;47.932;7.810;2023-04-03T12:58:50;6.80;99.90
17423;DHT22;8829;47.932;7.810;2023-04-03T13:01:20;7.00;99.90
17423;DHT22;8829;47.932;7.810;2023-04-03T13:03:49;6.90;99.90
17423;DHT22;8829;47.932;7.810;2023-04-03T13:06:19;6.80;99.90
17423;DHT22;8829;47.932;7.810;2023-04-03T13:08:54;6.90;99.90
17423;DHT22;8829;47.932;7.810;2023-04-03T13:11:22;7.00;99.90
17423;DHT22;8829;47.932;7.810;2023-04-03T13:13:55;7.00;99.90
17423;DHT22;8829;47.932;7.810;2023-04-03T13:16:22;6.90;99.90
17423;DHT22;8829;47.932;7.810;2023-04-03T13:18:51;6.80;99.90
17423;DHT22;8829;47.932;7.810;2023-04-03T13:21:20;6.80;99.90
17423;DHT22;8829;47.932;7.810;2023-04-03T13:23:53;7.00;99.90
17423;DHT22;8829;47.932;7.810;2023-04-03T13:26:23;6.90;99.90
17423;DHT22;8829;47.932;7.810;2023-04-03T13:28:52;6.80;99.90
17423;DHT22;8829;47.932;7.810;2023-04-03T13:31:23;6.70;99.90
17423;DHT22;8829;47.932;7.810;2023-04-03T13:33:55;6.90;99.90
17423;DHT22;8829;47.932;7.810;2023-04-03T13:36:24;6.70;99.90
17423;DHT22;8829;47.932;7.810;2023-04-03T13:39:17;6.70;99.90
17423;DHT22;8829;47.932;7.810;2023-04-03T13:41:47;7.00;99.90
17423;DHT22;8829;47.932;7.810;2023-04-03T13:44:28;7.20;99.90
17423;DHT22;8829;47.932;7.810;2023-04-03T13:46:57;7.10;99.90
17423;DHT22;8829;47.932;7.810;2023-04-03T13:49:31;7.20;99.90
17423;DHT22;8829;47.932;7.810;2023-04-03T13:52:00;7.00;99.90
17423;DHT22;8829;47.932;7.810;2023-04-03T13:54:32;7.00;99.90
17423;DHT22;8829;47.932;7.810;2023-04-03T13:57:00;7.10;99.90
17423;DHT22;8829;47.932;7.810;2023-04-03T13:59:29;6.90;99.90
17423;DHT22;8829;47.932;7.810;2023-04-03T14:02:13;6.90;99.90
17423;DHT22;8829;47.932;7.810;2023-04-03T14:04:50;6.70;99.90
17423;DHT22;8829;47.932;7.810;2023-04-03T14:07:18;6.80;99.90
17423;DHT22;8829;47.932;7.810;2023-04-03T14:09:48;6.80;99.90
17423;DHT22;8829;47.932;7.810;2023-04-03T14:12:17;6.80;99.90
17423;DHT22;8829;47.932;7.810;2023-04-03T14:14:44;6.70;99.90
17423;DHT22;8829;47.932;7.810;2023-04-03T14:17:16;6.90;99.90
17423;DHT22;8829;47.932;7.810;2023-04-03T14:19:43;6.90;99.90
17423;DHT22;8829;47.932;7.810;2023-04-03T14:22:15;6.80;99.90
17423;DHT22;8829;47.932;7.810;2023-04-03T14:24:42;6.80;99.90
17423;DHT22;8829;47.932;7.810;2023-04-03T14:27:16;6.90;99.90
17423;DHT22;8829;47.932;7.810;2023-04-03T14:29:44;7.10;99.90
17423;DHT22;8829;47.932;7.810;2023-04-03T14:32:14;7.20;99.90
17423;DHT22;8829;47.932;7.810;2023-04-03T14:34:42;7.10;99.90
17423;DHT22;8829;47.932;7.810;2023-04-03T14:37:11;7.10;99.90
17423;DHT22;8829;47.932;7.810;2023-04-03T14:39:39;7.10;99.90
17423;DHT22;8829;47.932;7.810;2023-04-03T14:42:06;7.20;99.90
17423;DHT22;8829;47.932;7.810;2023-04-03T14:44:38;7.10;99.90
17423;DHT22;8829;47.932;7.810;2023-04-03T14:47:07;6.90;99.90
17423;DHT22;8829;47.932;7.810;2023-04-03T14:49:35;6.90;99.90
17423;DHT22;8829;47.932;7.810;2023-04-03T14:52:02;6.90;99.90
17423;DHT22;8829;47.932;7.810;2023-04-03T14:54:29;6.90;99.90
17423;DHT22;8829;47.932;7.810;2023-04-03T14:56:57;6.80;99.90
17423;DHT22;8829;47.932;7.810;2023-04-03T14:59:31;6.60;99.90
17423;DHT22;8829;47.932;7.810;2023-04-03T15:01:59;6.60;99.90
17423;DHT22;8829;47.932;7.810;2023-04-03T15:04:32;6.50;99.90
17423;DHT22;8829;47.932;7.810;2023-04-03T15:06:59;6.40;99.90
17423;DHT22;8829;47.932;7.810;2023-04-03T15:09:26;6.40;99.90
17423;DHT22;8829;47.932;7.810;2023-04-03T15:11:55;6.40;99.90
17423;DHT22;8829;47.932;7.810;2023-04-03T15:14:22;6.40;99.90
17423;DHT22;8829;47.932;7.810;2023-04-03T15:16:49;6.50;99.90
17423;DHT22;8829;47.932;7.810;2023-04-03T15:19:17;6.50;99.90
17423;DHT22;8829;47.932;7.810;2023-04-03T15:21:44;6.50;99.90
17423;DHT22;8829;47.932;7.810;2023-04-03T15:24:11;6.40;99.90
17423;DHT22;8829;47.932;7.810;2023-04-03T15:26:38;6.40;99.90
17423;DHT22;8829;47.932;7.810;2023-04-03T15:29:05;6.40;99.90
17423;DHT22;8829;47.932;7.810;2023-04-03T15:31:32;6.40;99.90
17423;DHT22;8829;47.932;7.810;2023-04-03T15:33:58;6.50;99.90
17423;DHT22;8829;47.932;7.810;2023-04-03T15:36:26;6.50;99.90
17423;DHT22;8829;47.932;7.810;2023-04-03T15:38:53;6.50;99.90
17423;DHT22;8829;47.932;7.810;2023-04-03T15:41:20;6.50;99.90
17423;DHT22;8829;47.932;7.810;2023-04-03T15:43:47;6.50;99.90
17423;DHT22;8829;47.932;7.810;2023-04-03T15:46:16;6.50;99.90
17423;DHT22;8829;47.932;7.810;2023-04-03T15:48:43;6.50;99.90
17423;DHT22;8829;47.932;7.810;2023-04-03T15:51:10;6.50;99.90
17423;DHT22;8829;47.932;7.810;2023-04-03T15:53:39;6.50;99.90
17423;DHT22;8829;47.932;7.810;2023-04-03T15:56:05;6.50;99.90
17423;DHT22;8829;47.932;7.810;2023-04-03T15:58:35;6.50;99.90
17423;DHT22;8829;47.932;7.810;2023-04-03T16:01:02;6.40;99.90
17423;DHT22;8829;47.932;7.810;2023-04-03T16:03:29;6.40;99.90
17423;DHT22;8829;47.932;7.810;2023-04-03T16:05:56;6.30;99.90
17423;DHT22;8829;47.932;7.810;2023-04-03T16:08:22;6.30;99.90
17423;DHT22;8829;47.932;7.810;2023-04-03T16:10:52;6.30;99.90
17423;DHT22;8829;47.932;7.810;2023-04-03T16:13:19;6.20;99.90
17423;DHT22;8829;47.932;7.810;2023-04-03T16:15:46;6.10;99.90
17423;DHT22;8829;47.932;7.810;2023-04-03T16:18:14;6.10;99.90
17423;DHT22;8829;47.932;7.810;2023-04-03T16:20:40;6.10;99.90
17423;DHT22;8829;47.932;7.810;2023-04-03T16:23:09;6.00;99.90